Time;durP1;ratioP1;P1;durP2;ratioP2;P2;SDS_P1;SDS_P2;PMS_P1;PMS_P2;Temp;Humidity;BMP_temperature;BMP_pressure;BME280_temperature;BME280_humidity;BME280_pressure;Samples;Min_cycle;Max_cycle;Signal;HPM_P1;HPM_P2
2023/04/09 00:01:06;;;;;;;4.72;2.75;;;;;;;23.39;36.28;100260.00;4485297;31;33143;-61
2023/04/09 00:03:34;;;;;;;5.07;3.25;;;;;;;23.39;36.27;100262.72;4472320;31;34704;-61
2023/04/09 00:06:03;;;;;;;5.85;3.03;;;;;;;23.39;36.26;100265.47;4498331;31;34463;-61
2023/04/09 00:08:31;;;;;;;5.43;2.65;;;;;;;23.38;36.28;100274.69;4498039;31;34418;-61
2023/04/09 00:10:58;;;;;;;4.57;3.03;;;;;;;23.39;36.26;100264.63;4499342;31;34118;-61
2023/04/09 00:13:26;;;;;;;6.62;2.87;;;;;;;23.40;36.25;100269.00;4492336;31;34562;-61
2023/04/09 00:16:06;;;;;;;6.15;3.00;;;;;;;23.38;36.29;100265.69;4494014;31;33673;-61
2023/04/09 00:18:34;;;;;;;6.05;2.80;;;;;;;23.37;36.31;100259.41;4480889;31;34041;-61
2023/04/09 00:21:01;;;;;;;4.47;2.67;;;;;;;23.37;36.35;100266.75;4495083;31;32378;-61
2023/04/09 00:23:29;;;;;;;5.85;2.83;;;;;;;23.36;36.35;100259.59;4484989;31;34691;-62
2023/04/09 00:25:57;;;;;;;6.85;2.85;;;;;;;23.36;36.32;100270.50;4498031;31;34374;-61
2023/04/09 00:28:24;;;;;;;5.85;3.12;;;;;;;23.36;36.35;100265.91;4499015;31;33824;-61
2023/04/09 00:30:52;;;;;;;5.72;2.58;;;;;;;23.36;36.35;100260.47;4497941;31;33410;-60
2023/04/09 00:33:20;;;;;;;4.95;2.58;;;;;;;23.36;36.32;100262.31;4484793;31;33028;-61
2023/04/09 00:35:47;;;;;;;5.32;2.80;;;;;;;23.36;36.33;100267.75;4498739;31;33706;-61
2023/04/09 00:38:15;;;;;;;4.30;2.80;;;;;;;23.35;36.35;100266.09;4499048;31;33525;-61
2023/04/09 00:40:42;;;;;;;6.80;3.10;;;;;;;23.35;36.32;100255.22;4484936;31;33416;-61
2023/04/09 00:43:10;;;;;;;5.85;2.78;;;;;;;23.34;36.36;100261.72;4483898;32;34618;-61
2023/04/09 00:45:38;;;;;;;4.82;2.67;;;;;;;23.34;36.39;100253.53;4485196;32;34544;-61
2023/04/09 00:48:06;;;;;;;4.50;2.83;;;;;;;23.33;36.40;100260.03;4484247;32;33379;-61
2023/04/09 00:50:33;;;;;;;4.50;2.67;;;;;;;23.33;36.38;100260.03;4483777;32;32350;-61
2023/04/09 00:53:01;;;;;;;5.25;2.53;;;;;;;23.32;36.37;100256.50;4485181;32;34670;-61
2023/04/09 00:55:29;;;;;;;5.70;2.80;;;;;;;23.32;36.38;100252.94;4483798;32;34016;-61
2023/04/09 00:57:56;;;;;;;5.43;2.70;;;;;;;23.29;36.38;100254.19;4483910;32;33534;-60
2023/04/09 01:00:24;;;;;;;4.35;2.40;;;;;;;23.31;36.41;100259.41;4483762;32;33307;-61
2023/04/09 01:02:52;;;;;;;4.07;2.60;;;;;;;23.29;36.37;100251.47;4485179;32;33690;-60
2023/04/09 01:05:21;;;;;;;5.15;2.78;;;;;;;23.30;36.38;100252.28;4483705;32;33930;-61
2023/04/09 01:08:00;;;;;;;5.82;3.10;;;;;;;23.28;36.40;100252.53;4483764;32;32695;-60
2023/04/09 01:10:31;;;;;;;3.75;2.50;;;;;;;23.27;36.42;100250.00;4483771;32;32630;-61
2023/04/09 01:13:15;;;;;;;4.65;2.58;;;;;;;23.28;36.42;100251.69;4485318;32;33732;-61
2023/04/09 01:15:55;;;;;;;4.12;2.58;;;;;;;23.28;36.39;100251.69;4474699;31;33836;-60
2023/04/09 01:18:31;;;;;;;4.07;2.62;;;;;;;23.27;36.43;100255.44;4486985;31;34668;-61
2023/04/09 01:21:35;;;;;;;5.03;2.60;;;;;;;23.25;36.50;100252.09;4487006;31;33052;-61
2023/04/09 01:24:46;;;;;;;4.82;2.55;;;;;;;23.28;36.43;100247.06;4410412;32;33180;-61
2023/04/09 01:27:15;;;;;;;4.05;2.42;;;;;;;23.28;36.45;100248.97;4487308;31;34707;-61
2023/04/09 01:29:46;;;;;;;5.28;2.30;;;;;;;23.23;36.52;100252.34;4474548;31;34278;-61
2023/04/09 01:32:15;;;;;;;5.12;2.65;;;;;;;23.22;36.52;100255.25;4499446;31;33194;-60
2023/04/09 01:34:44;;;;;;;4.82;2.62;;;;;;;23.23;36.50;100259.66;4499348;31;34763;-61
2023/04/09 01:37:12;;;;;;;4.93;2.58;;;;;;;23.22;36.51;100256.06;4473492;31;32891;-61
2023/04/09 01:39:39;;;;;;;4.45;2.50;;;;;;;23.23;36.50;100254.22;4499371;31;34472;-60
2023/04/09 01:42:09;;;;;;;4.40;2.50;;;;;;;23.22;36.50;100260.69;4499187;31;33801;-61
2023/04/09 01:44:38;;;;;;;6.12;2.53;;;;;;;23.21;36.52;100262.59;4486550;31;33828;-60
2023/04/09 01:47:07;;;;;;;6.55;2.72;;;;;;;23.23;36.49;100265.09;4486494;31;34365;-61
2023/04/09 01:49:35;;;;;;;4.97;2.83;;;;;;;23.22;36.51;100263.41;4486283;31;33736;-60
2023/04/09 01:52:02;;;;;;;4.37;2.45;;;;;;;23.21;36.54;100264.47;4499257;31;33435;-61
2023/04/09 01:54:30;;;;;;;4.30;2.53;;;;;;;23.22;36.52;100257.97;4499086;31;34571;-61
2023/04/09 01:56:58;;;;;;;3.97;2.67;;;;;;;23.21;36.53;100250.84;4500214;31;34377;-61
2023/04/09 01:59:25;;;;;;;5.22;2.60;;;;;;;23.21;36.53;100253.56;4486067;31;33869;-61
2023/04/09 02:01:56;;;;;;;4.12;2.62;;;;;;;23.20;36.53;100258.19;4500389;31;33886;-60
2023/04/09 02:04:39;;;;;;;3.60;2.53;;;;;;;23.21;36.54;100261.75;4473393;31;32723;-61
2023/04/09 02:07:13;;;;;;;4.90;2.42;;;;;;;23.21;36.52;100251.69;4499163;31;33966;-60
2023/04/09 02:09:41;;;;;;;4.75;2.55;;;;;;;23.18;36.56;100260.31;4486602;31;32686;-60
2023/04/09 02:12:11;;;;;;;4.47;2.65;;;;;;;23.20;36.57;100260.09;4473069;31;32326;-60
2023/04/09 02:14:38;;;;;;;3.85;2.30;;;;;;;23.17;36.57;100251.31;4499404;31;34283;-61
2023/04/09 02:17:06;;;;;;;4.60;2.65;;;;;;;23.20;36.54;100257.37;4485926;31;34003;-61
2023/04/09 02:19:44;;;;;;;4.03;2.20;;;;;;;23.19;36.57;100244.81;4470290;32;32952;-61
2023/04/09 02:22:13;;;;;;;5.70;2.70;;;;;;;23.19;36.54;100248.38;4470935;32;34280;-61
2023/04/09 02:24:40;;;;;;;3.20;2.15;;;;;;;23.17;36.54;100251.31;4470341;32;34637;-61
2023/04/09 02:27:08;;;;;;;5.78;2.70;;;;;;;23.17;36.57;100245.00;4483308;32;34656;-61
2023/04/09 02:29:38;;;;;;;3.97;2.60;;;;;;;23.16;36.59;100252.34;4484322;32;33806;-61
2023/04/09 02:32:06;;;;;;;4.12;2.30;;;;;;;23.15;36.63;100242.50;4470229;32;33626;-61
2023/04/09 02:34:33;;;;;;;4.75;2.78;;;;;;;23.16;36.61;100246.06;4483213;32;33517;-61
2023/04/09 02:37:01;;;;;;;4.72;2.37;;;;;;;23.16;36.64;100246.06;4469965;32;33599;-60
2023/04/09 02:39:29;;;;;;;3.17;2.10;;;;;;;23.15;36.64;100245.22;4483160;32;33634;-61
2023/04/09 02:41:56;;;;;;;4.75;2.70;;;;;;;23.15;36.65;100247.94;4483100;32;33408;-61
2023/04/09 02:44:25;;;;;;;5.60;2.42;;;;;;;23.15;36.67;100241.66;4484201;32;34106;-61
2023/04/09 02:46:53;;;;;;;3.22;2.10;;;;;;;23.15;36.64;100247.13;4483289;32;32800;-61
2023/04/09 02:49:20;;;;;;;4.05;2.42;;;;;;;23.14;36.62;100246.28;4482971;32;34494;-61
2023/04/09 02:51:48;;;;;;;3.30;2.20;;;;;;;23.15;36.60;100239.78;4482863;32;32560;-61
2023/04/09 02:54:16;;;;;;;3.97;2.10;;;;;;;23.15;36.61;100241.66;4484352;32;33507;-62
2023/04/09 02:56:43;;;;;;;3.37;2.00;;;;;;;23.14;36.61;100240.84;4483069;32;34486;-61
2023/04/09 02:59:11;;;;;;;3.58;2.20;;;;;;;23.15;36.61;100244.37;4469925;32;32291;-61
2023/04/09 03:01:39;;;;;;;3.97;2.50;;;;;;;23.14;36.59;100240.84;4482919;32;33543;-61
2023/04/09 03:04:06;;;;;;;6.32;2.20;;;;;;;23.13;36.58;100243.78;4483019;32;33910;-61
2023/04/09 03:06:35;;;;;;;5.03;2.33;;;;;;;23.14;36.59;100240.84;4482886;32;34367;-61
2023/04/09 03:09:02;;;;;;;4.43;2.47;;;;;;;23.13;36.60;100241.06;4484226;32;34482;-61
2023/04/09 03:11:30;;;;;;;4.20;2.70;;;;;;;23.13;36.58;100244.63;4484235;32;33329;-61
2023/04/09 03:13:58;;;;;;;4.05;2.22;;;;;;;23.14;36.57;100235.38;4482815;32;34591;-60
2023/04/09 03:16:25;;;;;;;4.62;2.40;;;;;;;23.13;36.57;100243.78;4492446;31;34099;-61
2023/04/09 03:18:53;;;;;;;5.53;2.15;;;;;;;23.13;36.59;100246.50;4498554;31;33794;-61
2023/04/09 03:21:21;;;;;;;4.37;2.37;;;;;;;23.12;36.63;100242.91;4499944;31;34434;-61
2023/04/09 03:23:49;;;;;;;3.35;2.20;;;;;;;23.12;36.63;100248.38;4499943;31;33687;-60
2023/04/09 03:26:16;;;;;;;3.75;2.15;;;;;;;23.13;36.65;100238.34;4500004;31;33976;-61
2023/04/09 03:28:44;;;;;;;3.83;2.20;;;;;;;23.12;36.67;100247.53;4498955;31;33458;-61
2023/04/09 03:31:12;;;;;;;3.25;2.12;;;;;;;23.13;36.65;100249.22;4498651;31;32911;-60
2023/04/09 03:33:40;;;;;;;3.28;2.17;;;;;;;23.10;36.63;100244.19;4499678;31;34052;-60
2023/04/09 03:36:08;;;;;;;3.80;1.83;;;;;;;23.11;36.62;100241.25;4500028;31;33792;-61
2023/04/09 03:38:37;;;;;;;3.65;1.77;;;;;;;23.10;36.62;100242.31;4499975;31;34408;-61
2023/04/09 03:41:06;;;;;;;3.80;2.22;;;;;;;23.11;36.60;100245.88;4498580;31;33722;-61
2023/04/09 03:43:34;;;;;;;2.87;2.00;;;;;;;23.12;36.59;100242.91;4499661;31;33621;-61
2023/04/09 03:46:15;;;;;;;3.55;2.15;;;;;;;23.10;36.59;100238.75;4499940;31;35336;-60
2023/04/09 03:48:44;;;;;;;3.60;2.20;;;;;;;23.11;36.59;100243.97;4499627;31;33803;-61
2023/04/09 03:51:15;;;;;;;5.20;2.10;;;;;;;23.11;36.58;100243.13;4498666;31;34104;-61
2023/04/09 03:53:46;;;;;;;3.62;2.20;;;;;;;23.10;36.59;100246.91;4498491;31;34404;-61
2023/04/09 03:56:13;;;;;;;2.80;1.87;;;;;;;23.09;36.55;100240.66;4499566;31;33715;-61
2023/04/09 03:58:41;;;;;;;4.37;2.20;;;;;;;23.11;36.58;100254.03;4499675;31;33675;-61
2023/04/09 04:01:09;;;;;;;3.62;2.28;;;;;;;23.11;36.57;100254.03;4499644;31;33565;-61
2023/04/09 04:03:38;;;;;;;4.60;2.20;;;;;;;23.08;36.58;100255.31;4499559;31;34616;-61
2023/04/09 04:06:06;;;;;;;4.75;2.30;;;;;;;23.08;36.58;100255.31;4499446;31;34673;-61
2023/04/09 04:08:35;;;;;;;4.50;2.40;;;;;;;23.08;36.58;100257.16;4498210;31;33818;-61
2023/04/09 04:11:03;;;;;;;3.42;2.00;;;;;;;23.09;36.55;100259.69;4498492;31;34132;-61
2023/04/09 04:13:32;;;;;;;2.90;1.65;;;;;;;23.07;36.56;100259.06;4498306;31;34257;-61
2023/04/09 04:16:00;;;;;;;3.87;1.98;;;;;;;23.07;36.58;100264.50;4491999;31;33890;-61
2023/04/09 04:18:28;;;;;;;6.32;2.50;;;;;;;23.06;36.62;100253.84;4483667;32;33797;-61
2023/04/09 04:20:56;;;;;;;4.18;2.30;;;;;;;23.06;36.60;100260.09;4482191;32;32315;-61
2023/04/09 04:23:23;;;;;;;3.75;2.10;;;;;;;23.05;36.61;100258.44;4483262;32;34780;-61
2023/04/09 04:25:52;;;;;;;4.20;2.10;;;;;;;23.06;36.62;100268.28;4469252;32;33481;-61
2023/04/09 04:28:21;;;;;;;4.30;2.12;;;;;;;23.04;36.64;100267.66;4482419;32;34412;-61
2023/04/09 04:30:50;;;;;;;3.83;2.20;;;;;;;23.06;36.63;100270.16;4483277;32;33013;-61
2023/04/09 04:33:17;;;;;;;5.55;2.45;;;;;;;23.04;36.65;100275.84;4482292;32;33946;-61
2023/04/09 04:35:46;;;;;;;4.03;2.15;;;;;;;23.05;36.66;100268.50;4481950;32;32918;-61
2023/04/09 04:38:14;;;;;;;4.00;2.15;;;;;;;23.03;36.66;100271.41;4483371;32;33791;-61
2023/04/09 04:40:42;;;;;;;3.33;2.05;;;;;;;23.01;36.67;100268.09;4482038;32;33304;-61
2023/04/09 04:43:10;;;;;;;3.80;2.00;;;;;;;23.01;36.69;100278.97;4468784;32;34646;-61
2023/04/09 04:45:37;;;;;;;3.58;2.10;;;;;;;23.01;36.70;100278.13;4483028;32;34024;-61
2023/04/09 04:48:05;;;;;;;3.70;1.85;;;;;;;23.01;36.69;100275.41;4483359;32;33432;-61
2023/04/09 04:50:32;;;;;;;3.92;2.08;;;;;;;23.00;36.70;100277.31;4482830;32;33498;-61
2023/04/09 04:53:00;;;;;;;3.05;1.83;;;;;;;23.01;36.68;100280.84;4481661;31;33941;-61
2023/04/09 04:55:29;;;;;;;3.40;2.10;;;;;;;23.00;36.68;100280.03;4481952;32;33992;-61
2023/04/09 04:57:58;;;;;;;4.25;2.42;;;;;;;23.00;36.68;100276.47;4481785;32;33903;-61
2023/04/09 05:00:27;;;;;;;3.37;1.90;;;;;;;22.99;36.66;100278.34;4481971;32;33086;-60
2023/04/09 05:02:58;;;;;;;5.03;2.05;;;;;;;22.99;36.69;100286.53;4482960;32;33681;-61
2023/04/09 05:05:26;;;;;;;3.40;2.00;;;;;;;22.99;36.67;100286.53;4482979;32;33619;-61
2023/04/09 05:07:53;;;;;;;2.55;1.80;;;;;;;22.98;36.66;100290.25;4468627;32;33761;-61
2023/04/09 05:10:21;;;;;;;7.25;2.08;;;;;;;22.97;36.67;100288.59;4483038;32;34092;-61
2023/04/09 05:12:49;;;;;;;4.22;2.28;;;;;;;22.97;36.69;100294.03;4482827;32;34641;-61
2023/04/09 05:15:17;;;;;;;3.60;2.12;;;;;;;22.96;36.69;100291.53;4482404;31;34028;-61
2023/04/09 05:17:45;;;;;;;3.42;2.17;;;;;;;22.96;36.70;100294.25;4498386;31;34491;-61
2023/04/09 05:20:13;;;;;;;3.67;1.87;;;;;;;22.96;36.70;100297.00;4498475;31;32919;-61
2023/04/09 05:22:43;;;;;;;3.33;2.10;;;;;;;22.96;36.72;100294.25;4498461;31;33875;-61
2023/04/09 05:25:15;;;;;;;4.18;2.10;;;;;;;22.96;36.74;100294.25;4496831;31;33914;-61
2023/04/09 05:27:43;;;;;;;3.53;1.90;;;;;;;22.95;36.75;100295.31;4499328;31;33672;-61
2023/04/09 05:30:10;;;;;;;3.05;1.95;;;;;;;22.95;36.77;100293.44;4486412;31;32377;-61
2023/04/09 05:32:38;;;;;;;3.50;2.05;;;;;;;22.94;36.80;100297.19;4499453;31;32635;-61
2023/04/09 05:35:06;;;;;;;2.95;1.95;;;;;;;22.94;36.79;100293.63;4499445;31;33995;-61
2023/04/09 05:37:37;;;;;;;4.25;1.92;;;;;;;22.92;36.83;100297.41;4499361;31;33773;-61
2023/04/09 05:40:06;;;;;;;2.50;1.73;;;;;;;22.93;36.82;100300.94;4500574;31;33448;-60
2023/04/09 05:42:33;;;;;;;3.58;2.00;;;;;;;22.94;36.80;100304.50;4494385;31;32887;-60
2023/04/09 05:45:01;;;;;;;3.67;1.90;;;;;;;22.94;36.77;100296.34;4500087;31;33490;-60
2023/04/09 05:47:31;;;;;;;5.22;2.15;;;;;;;22.93;36.79;100300.94;4492448;31;33824;-60
2023/04/09 05:49:59;;;;;;;3.45;2.00;;;;;;;22.93;36.77;100303.69;4477440;31;33076;-60
2023/04/09 05:52:27;;;;;;;3.60;1.92;;;;;;;22.92;36.78;100302.84;4479480;31;33809;-61
2023/04/09 05:54:55;;;;;;;3.67;2.00;;;;;;;22.93;36.79;100303.69;4500147;31;33411;-61
2023/04/09 05:57:23;;;;;;;3.70;1.98;;;;;;;22.92;36.81;100302.84;4500552;31;33517;-60
2023/04/09 05:59:50;;;;;;;3.28;1.83;;;;;;;22.93;36.82;100306.41;4499274;31;33387;-61
2023/04/09 06:02:18;;;;;;;3.42;2.03;;;;;;;22.91;36.81;100309.34;4498996;31;34806;-60
2023/04/09 06:04:46;;;;;;;3.08;1.87;;;;;;;22.92;36.80;100310.16;4500367;31;34036;-61
2023/04/09 06:07:14;;;;;;;3.40;2.00;;;;;;;22.91;36.81;100309.34;4486415;31;33798;-61
2023/04/09 06:09:45;;;;;;;3.40;2.12;;;;;;;22.90;36.80;100307.66;4500471;31;33258;-61
2023/04/09 06:12:13;;;;;;;2.25;1.60;;;;;;;22.91;36.79;100317.50;4499125;31;32840;-60
2023/04/09 06:14:41;;;;;;;2.87;1.80;;;;;;;22.92;36.79;100312.88;4483216;31;32761;-60
2023/04/09 06:17:08;;;;;;;3.92;1.70;;;;;;;22.91;36.79;100316.66;4496595;31;32796;-61
2023/04/09 06:19:36;;;;;;;4.22;1.70;;;;;;;22.91;36.80;100327.56;4499000;31;33621;-61
2023/04/09 06:22:04;;;;;;;3.80;2.15;;;;;;;22.90;36.79;100317.72;4498912;31;33862;-60
2023/04/09 06:24:32;;;;;;;3.87;1.87;;;;;;;22.91;36.78;100324.84;4500269;31;33920;-61
2023/04/09 06:26:59;;;;;;;3.62;1.95;;;;;;;22.90;36.79;100315.84;4500345;31;34293;-60
2023/04/09 06:29:27;;;;;;;3.60;2.00;;;;;;;22.90;36.82;100323.16;4498914;31;32887;-61
2023/04/09 06:31:54;;;;;;;2.65;1.95;;;;;;;22.89;36.82;100319.56;4498927;31;32941;-61
2023/04/09 06:34:23;;;;;;;2.65;1.73;;;;;;;22.90;36.84;100325.88;4500322;31;33900;-63
2023/04/09 06:36:50;;;;;;;3.30;1.90;;;;;;;22.89;36.83;100322.28;4498763;31;33709;-63
2023/04/09 06:39:18;;;;;;;2.95;1.98;;;;;;;22.89;36.91;100313.31;4485650;31;32386;-63
2023/04/09 06:41:46;;;;;;;5.40;2.20;;;;;;;22.89;36.89;100316.84;4499622;31;34829;-62
2023/04/09 06:44:18;;;;;;;4.90;2.05;;;;;;;22.90;36.82;100315.00;4489641;31;33524;-62
2023/04/09 06:46:46;;;;;;;4.90;2.67;;;;;;;22.91;36.78;100316.66;4491875;31;33741;-63
2023/04/09 06:49:14;;;;;;;5.15;2.30;;;;;;;22.89;36.78;100314.13;4499680;31;33523;-61
2023/04/09 06:51:41;;;;;;;4.95;2.47;;;;;;;22.89;36.82;100324.19;4478334;31;34340;-62
2023/04/09 06:54:09;;;;;;;6.62;2.62;;;;;;;22.91;36.81;100322.09;4499620;31;33981;-62
2023/04/09 06:56:37;;;;;;;4.75;2.47;;;;;;;22.91;36.80;100325.66;4491682;31;33766;-62
2023/04/09 06:59:05;;;;;;;5.00;2.83;;;;;;;22.92;36.80;100332.78;4499406;31;34099;-62
2023/04/09 07:01:34;;;;;;;6.93;2.78;;;;;;;22.94;36.76;100326.28;4498858;31;33766;-62
2023/04/09 07:04:03;;;;;;;;;;;;;;;22.94;36.69;100334.44;4486059;31;34337;-61
2023/04/09 07:06:30;;;;;;;6.12;3.10;;;;;;;23.03;36.51;100341.34;4499838;31;34057;-60
2023/04/09 07:08:58;;;;;;;6.07;2.80;;;;;;;22.96;36.53;100335.91;4485548;31;32163;-61
2023/04/09 07:11:25;;;;;;;6.30;3.00;;;;;;;22.95;36.54;100333.41;4485237;31;34001;-62
2023/04/09 07:13:55;;;;;;;4.35;2.67;;;;;;;22.92;36.52;100340.94;4495252;31;33273;-61
2023/04/09 07:16:23;;;;;;;5.97;3.10;;;;;;;22.94;36.52;100342.59;4489534;31;33749;-62
2023/04/09 07:18:51;;;;;;;4.55;2.60;;;;;;;22.93;36.50;100341.78;4499272;31;34244;-62
2023/04/09 07:21:19;;;;;;;6.60;3.20;;;;;;;22.94;36.48;100342.59;4499098;31;33675;-61
2023/04/09 07:23:47;;;;;;;5.40;3.28;;;;;;;22.94;36.46;100343.44;4465848;31;33051;-62
2023/04/09 07:26:14;;;;;;;7.47;3.12;;;;;;;22.93;36.45;100344.50;4499896;31;33649;-62
2023/04/09 07:28:41;;;;;;;8.15;3.80;;;;;;;22.94;36.42;100351.59;4499834;31;32917;-61
2023/04/09 07:31:10;;;;;;;13.35;7.20;;;;;;;22.92;36.38;100357.25;4499873;31;34745;-61
2023/04/09 07:33:37;;;;;;;8.55;5.32;;;;;;;22.87;34.20;100356.19;4498479;31;34748;-60
2023/04/09 07:36:05;;;;;;;10.25;4.70;;;;;;;22.87;35.08;100350.75;4498630;31;34047;-61
2023/04/09 07:38:33;;;;;;;8.73;4.43;;;;;;;22.88;35.22;100357.84;4499653;31;33508;-60
2023/04/09 07:41:01;;;;;;;9.88;4.50;;;;;;;22.88;35.24;100350.53;4499672;31;34279;-60
2023/04/09 07:43:29;;;;;;;7.45;4.32;;;;;;;22.86;35.31;100354.53;4485670;31;33953;-61
2023/04/09 07:45:57;;;;;;;7.93;4.25;;;;;;;22.84;35.41;100354.72;4485571;31;32680;-61
2023/04/09 07:48:26;;;;;;;7.40;4.32;;;;;;;22.84;35.45;100359.31;4499800;31;33413;-61
2023/04/09 07:50:54;;;;;;;7.35;4.07;;;;;;;22.83;35.49;100353.03;4495009;31;33759;-61
2023/04/09 07:53:22;;;;;;;10.30;3.83;;;;;;;22.83;35.50;100358.50;4499528;31;33859;-60
2023/04/09 07:55:50;;;;;;;7.30;3.58;;;;;;;22.82;35.53;100367.69;4498199;31;34437;-60
2023/04/09 07:58:18;;;;;;;6.15;3.35;;;;;;;22.81;35.56;100360.59;4499428;31;32733;-61
2023/04/09 08:00:46;;;;;;;7.00;3.50;;;;;;;22.81;35.57;100365.19;4498037;31;33608;-60
2023/04/09 08:03:14;;;;;;;11.10;4.12;;;;;;;22.82;35.54;100358.72;4482040;31;34002;-61
2023/04/09 08:05:42;;;;;;;9.35;3.85;;;;;;;22.86;35.75;100362.69;4463621;31;32598;-62
2023/04/09 08:08:11;;;;;;;9.90;3.60;;;;;;;22.86;36.01;100362.69;4494402;31;33727;-62
2023/04/09 08:10:39;;;;;;;13.60;4.30;;;;;;;22.91;36.16;100363.75;4497653;31;33627;-62
2023/04/09 08:13:06;;;;;;;9.82;4.47;;;;;;;23.01;35.99;100357.91;4499358;31;33815;-62
2023/04/09 08:15:36;;;;;;;10.70;4.32;;;;;;;23.12;35.49;100356.41;4498900;31;34497;-63
2023/04/09 08:18:04;;;;;;;8.57;3.85;;;;;;;23.23;34.99;100346.78;4498882;31;33152;-64
2023/04/09 08:20:32;;;;;;;7.18;4.47;;;;;;;23.32;34.67;100351.78;4499198;31;33481;-64
2023/04/09 08:22:59;;;;;;;11.27;4.22;;;;;;;23.42;34.63;100354.91;4498819;31;34638;-62
2023/04/09 08:25:27;;;;;;;10.60;4.00;;;;;;;23.55;34.58;100361.34;4498758;31;33753;-63
2023/04/09 08:27:54;;;;;;;6.60;3.47;;;;;;;23.66;34.53;100364.28;4498860;31;33464;-63
2023/04/09 08:30:22;;;;;;;8.35;4.00;;;;;;;23.77;34.45;100362.78;4499118;31;33384;-61
2023/04/09 08:32:50;;;;;;;10.15;3.85;;;;;;;23.90;34.33;100372.81;4498930;31;34631;-62
2023/04/09 08:35:17;;;;;;;10.45;4.32;;;;;;;24.01;34.16;100369.37;4497663;31;33053;-62
2023/04/09 08:37:45;;;;;;;10.23;4.07;;;;;;;24.14;34.08;100376.69;4499055;31;33265;-62
2023/04/09 08:40:14;;;;;;;6.87;3.67;;;;;;;24.24;34.00;100376.22;4497205;31;33336;-62
2023/04/09 08:42:44;;;;;;;9.38;3.35;;;;;;;24.33;33.95;100380.34;4498886;31;33469;-62
2023/04/09 08:45:11;;;;;;;9.52;3.75;;;;;;;24.42;33.91;100379.06;4498892;31;33754;-62
2023/04/09 08:47:40;;;;;;;6.60;3.92;;;;;;;24.49;33.84;100384.50;4498837;31;33311;-62
2023/04/09 08:50:08;;;;;;;6.82;2.97;;;;;;;24.54;33.79;100384.69;4497642;31;33938;-62
2023/04/09 08:52:35;;;;;;;6.93;3.80;;;;;;;24.59;33.75;100382.97;4498740;31;34772;-62
2023/04/09 08:55:03;;;;;;;6.57;3.35;;;;;;;24.61;33.73;100394.47;4496959;31;34405;-62
2023/04/09 08:57:38;;;;;;;7.35;3.00;;;;;;;24.65;33.71;100397.59;4498648;31;32947;-61
2023/04/09 09:00:07;;;;;;;7.10;3.55;;;;;;;24.65;33.68;100401.16;4497040;31;34594;-62
2023/04/09 09:02:35;;;;;;;5.95;3.10;;;;;;;24.67;33.66;100403.69;4508924;31;33999;-87
2023/04/09 09:05:02;;;;;;;4.97;3.20;;;;;;;24.68;33.64;100408.09;4617916;26;35095;-94
2023/04/09 09:07:31;;;;;;;5.45;2.83;;;;;;;24.68;33.64;100405.38;4480480;32;33861;-90
2023/04/09 09:10:04;;;;;;;5.85;2.92;;;;;;;24.68;33.61;100406.19;4466771;32;33923;-88
2023/04/09 09:12:37;;;;;;;4.50;2.55;;;;;;;24.66;33.65;100400.09;4482686;32;34353;-86
2023/04/09 09:15:29;;;;;;;6.40;3.30;;;;;;;24.65;33.66;100398.44;4481341;32;35228;-95
2023/04/09 09:17:58;;;;;;;6.18;3.03;;;;;;;24.66;33.63;100402.84;4476241;32;32999;-94
2023/04/09 09:20:26;;;;;;;5.35;2.78;;;;;;;24.62;33.66;100404.34;4466380;32;34223;-85
2023/04/09 09:22:54;;;;;;;10.88;3.53;;;;;;;24.61;33.67;100401.81;4467476;32;35324;-93
2023/04/09 09:25:23;;;;;;;5.25;2.95;;;;;;;24.58;33.71;100405.00;4467762;32;34067;-90
2023/04/09 09:27:51;;;;;;;6.65;3.15;;;;;;;24.58;33.72;100405.00;4468351;32;33584;-89
2023/04/09 09:30:24;;;;;;;5.87;3.03;;;;;;;24.56;33.74;100399.75;4483502;32;35208;-90
2023/04/09 09:32:53;;;;;;;6.35;2.87;;;;;;;24.52;33.77;100398.53;4483174;32;34907;-89
2023/04/09 09:35:22;;;;;;;3.90;2.65;;;;;;;24.51;33.80;100399.59;4468401;32;35277;-88
2023/04/09 09:38:05;;;;;;;7.30;3.20;;;;;;;24.47;33.82;100401.06;4483569;32;34738;-69
2023/04/09 09:40:33;;;;;;;5.62;3.00;;;;;;;24.47;33.85;100392.87;4480639;32;35300;-91
2023/04/09 09:43:00;;;;;;;6.53;2.85;;;;;;;24.43;33.86;100395.25;4480628;32;33316;-87
2023/04/09 09:45:28;;;;;;;4.87;3.00;;;;;;;24.40;33.90;100392.09;4630997;26;35119;-78
2023/04/09 09:47:56;;;;;;;4.60;2.58;;;;;;;24.38;33.94;100394.19;4481684;32;35533;-88
2023/04/09 09:50:27;;;;;;;6.03;3.30;;;;;;;24.35;33.96;100390.00;4468255;32;33729;-81
2023/04/09 09:53:02;;;;;;;5.43;2.87;;;;;;;24.33;33.98;100394.81;4467726;32;35213;-93
2023/04/09 09:55:34;;;;;;;5.37;3.10;;;;;;;24.30;34.03;100380.81;4480488;32;36341;-94
2023/04/09 09:58:11;;;;;;;7.25;3.12;;;;;;;24.28;34.04;100389.19;4467712;32;31765;-91
2023/04/09 10:00:39;;;;;;;5.07;2.83;;;;;;;24.26;34.08;100385.03;4465861;32;34050;-86
2023/04/09 10:03:12;;;;;;;5.60;2.83;;;;;;;24.23;34.09;100386.28;4452300;32;35313;-74
2023/04/09 10:05:40;;;;;;;6.05;3.08;;;;;;;24.21;34.13;100390.28;4440451;32;35356;-83
2023/04/09 10:08:08;;;;;;;4.87;2.62;;;;;;;24.17;34.16;100388.00;4452131;32;33399;-87
2023/04/09 10:10:35;;;;;;;5.85;2.90;;;;;;;24.16;34.17;100389.06;4452202;32;36176;-87
2023/04/09 10:13:04;;;;;;;4.32;2.78;;;;;;;24.13;34.20;100392.19;4438633;32;33906;-89
2023/04/09 10:15:32;;;;;;;5.97;2.60;;;;;;;24.11;34.22;100386.16;4452658;32;34222;-86
2023/04/09 10:18:00;;;;;;;5.12;3.10;;;;;;;24.10;34.21;100387.16;4452651;32;34794;-84
2023/04/09 10:20:35;;;;;;;5.05;2.85;;;;;;;24.07;34.29;100393.09;4467638;32;33690;-95
2023/04/09 10:23:05;;;;;;;5.57;2.83;;;;;;;24.04;34.35;100384.50;4452867;32;34535;-87
2023/04/09 10:25:33;;;;;;;4.35;3.03;;;;;;;24.02;34.38;100389.34;4452549;32;33360;-89
2023/04/09 10:28:01;;;;;;;4.35;2.70;;;;;;;24.01;34.41;100396.66;4467952;32;34727;-94
2023/04/09 10:30:35;;;;;;;5.12;3.05;;;;;;;23.99;34.43;100384.31;4448414;32;34589;-70
2023/04/09 10:33:13;;;;;;;4.87;3.00;;;;;;;23.97;34.48;100392.72;4455243;32;34008;-63
2023/04/09 10:35:41;;;;;;;4.95;2.95;;;;;;;23.94;34.50;100382.22;4453170;32;33554;-63
2023/04/09 10:38:09;;;;;;;5.25;2.70;;;;;;;23.91;34.51;100385.38;4426564;32;32430;-62
2023/04/09 10:40:46;;;;;;;4.28;2.60;;;;;;;23.89;34.55;100391.06;4439130;32;33969;-62
2023/04/09 10:43:14;;;;;;;5.70;2.62;;;;;;;23.87;34.58;100390.41;4439075;32;33468;-63
2023/04/09 10:45:42;;;;;;;6.30;3.10;;;;;;;23.85;34.60;100388.97;4426539;32;34389;-63
2023/04/09 10:48:11;;;;;;;4.90;2.47;;;;;;;23.83;34.63;100393.81;4453077;32;33192;-62
2023/04/09 10:50:44;;;;;;;4.78;2.90;;;;;;;23.81;34.65;100387.72;4452953;32;34569;-62
2023/04/09 10:53:24;;;;;;;4.47;2.62;;;;;;;23.81;34.65;100383.09;4439133;32;33554;-62
2023/04/09 10:55:52;;;;;;;5.20;3.03;;;;;;;23.78;34.66;100378.09;4438966;32;34502;-63
2023/04/09 10:58:20;;;;;;;4.32;2.72;;;;;;;23.75;34.69;100381.25;4464870;32;32776;-86
2023/04/09 11:00:48;;;;;;;4.75;2.60;;;;;;;23.74;34.71;100385.03;4466128;32;33869;-88
2023/04/09 11:03:23;;;;;;;5.32;2.58;;;;;;;23.72;34.74;100387.13;4467182;32;35295;-89
2023/04/09 11:05:51;;;;;;;3.50;2.20;;;;;;;23.72;34.76;100386.28;4462975;32;33641;-92
2023/04/09 11:08:20;;;;;;;4.03;2.42;;;;;;;23.70;34.78;100389.22;4465392;32;34815;-85
2023/04/09 11:10:48;;;;;;;4.53;2.70;;;;;;;23.68;34.79;100381.25;4461805;32;33741;-83
2023/04/09 11:13:20;;;;;;;3.85;2.40;;;;;;;23.67;34.78;100387.75;4464605;32;35324;-90
2023/04/09 11:15:47;;;;;;;4.57;2.53;;;;;;;23.66;34.81;100383.37;4466087;32;34121;-68
2023/04/09 11:18:19;;;;;;;4.32;2.40;;;;;;;23.64;34.83;100388.22;4451720;32;34754;-94
2023/04/09 11:20:47;;;;;;;5.15;2.65;;;;;;;23.61;34.88;100383.16;4466522;32;34305;-89
2023/04/09 11:23:14;;;;;;;3.90;2.60;;;;;;;23.62;34.85;100379.37;4452451;32;34766;-88
2023/04/09 11:25:46;;;;;;;6.43;2.72;;;;;;;23.61;34.89;100379.59;4437659;32;35084;-94
2023/04/09 11:28:14;;;;;;;4.50;2.45;;;;;;;23.60;34.91;100380.66;4451038;32;33803;-93
2023/04/09 11:30:42;;;;;;;4.93;2.83;;;;;;;23.57;34.92;100376.44;4466311;32;34349;-84
2023/04/09 11:33:10;;;;;;;4.55;2.50;;;;;;;23.57;34.93;100381.06;4465325;32;34162;-92